createdAt,value
2022-10-24T00:01:30.539Z,100413.03
2022-10-24T00:03:59.179Z,100405.59
2022-10-24T00:06:27.162Z,100407.47
2022-10-24T00:08:55.127Z,100411.69
2022-10-24T00:11:24.346Z,100411.19
2022-10-24T00:13:52.452Z,100412.03
2022-10-24T00:16:21.777Z,100413.22
2022-10-24T00:18:49.739Z,100413.56
2022-10-24T00:21:17.747Z,100419.97
2022-10-24T00:23:45.713Z,100420.66
2022-10-24T00:26:13.882Z,100413.28
2022-10-24T00:28:42.097Z,100419.50
2022-10-24T00:31:10.506Z,100418.97
2022-10-24T00:33:39.864Z,100414.28
2022-10-24T00:36:12.121Z,100411.56
2022-10-24T00:38:40.104Z,100415.91
2022-10-24T00:41:08.002Z,100411.53
2022-10-24T00:43:35.981Z,100416.22
2022-10-24T00:46:04.252Z,100416.88
2022-10-24T00:48:33.707Z,100419.22
2022-10-24T00:51:05.876Z,100424.56
2022-10-24T00:53:34.636Z,100430.44
2022-10-24T00:56:03.258Z,100433.28
2022-10-24T00:58:32.331Z,100427.91
2022-10-24T01:01:00.389Z,100421.19
2022-10-24T01:03:28.528Z,100419.47
2022-10-24T01:06:28.627Z,100413.09
2022-10-24T01:09:01.903Z,100397.91
2022-10-24T01:11:38.942Z,100404.28
2022-10-24T01:14:10.353Z,100400.25
2022-10-24T01:16:39.860Z,100406.94
2022-10-24T01:19:12.285Z,100398.16
2022-10-24T01:21:42.183Z,100391.66
2022-10-24T01:24:30.883Z,100398.22
2022-10-24T01:27:22.397Z,100389.50
2022-10-24T01:30:07.954Z,100404.44
2022-10-24T01:32:42.370Z,100398.56
2022-10-24T01:35:27.098Z,100398.88
2022-10-24T01:37:58.572Z,100391.50
2022-10-24T01:40:35.199Z,100393.19
2022-10-24T01:43:06.956Z,100396.56
2022-10-24T01:45:37.018Z,100396.72
2022-10-24T01:48:06.886Z,100400.41
2022-10-24T01:50:35.266Z,100398.69
2022-10-24T01:53:03.224Z,100386.06
2022-10-24T01:55:31.803Z,100367.84
2022-10-24T01:57:59.792Z,100388.03
2022-10-24T02:00:27.820Z,100389.03
2022-10-24T02:02:58.407Z,100400.94
2022-10-24T02:05:28.306Z,100381.34
2022-10-24T02:07:57.686Z,100405.41
2022-10-24T02:10:28.372Z,100391.41
2022-10-24T02:12:59.064Z,100392.28
2022-10-24T02:15:27.970Z,100393.97
2022-10-24T02:17:57.270Z,100390.59
2022-10-24T02:20:28.641Z,100372.13
2022-10-24T02:22:59.091Z,100395.97
2022-10-24T02:25:28.385Z,100394.81
2022-10-24T02:27:58.228Z,100396.16
2022-10-24T02:30:26.391Z,100398.31
2022-10-24T02:32:56.772Z,100391.25
2022-10-24T02:35:27.501Z,100389.88
2022-10-24T02:37:59.055Z,100396.44
2022-10-24T02:40:27.010Z,100392.91
2022-10-24T02:42:56.285Z,100375.16
2022-10-24T02:45:24.287Z,100385.09
2022-10-24T02:47:52.606Z,100391.13
2022-10-24T02:50:20.545Z,100396.09
2022-10-24T02:52:49.925Z,100398.09
2022-10-24T02:55:17.915Z,100396.72
2022-10-24T02:57:45.887Z,100397.34
2022-10-24T03:00:14.722Z,100393.28
2022-10-24T03:02:42.782Z,100401.97
2022-10-24T03:05:11.259Z,100400.44
2022-10-24T03:07:39.241Z,100389.16
2022-10-24T03:10:09.316Z,100389.09
2022-10-24T03:12:37.301Z,100396.44
2022-10-24T03:15:05.812Z,100391.09
2022-10-24T03:17:33.779Z,100398.13
2022-10-24T03:20:01.713Z,100398.44
2022-10-24T03:22:30.570Z,100392.56
2022-10-24T03:25:01.805Z,100392.56
2022-10-24T03:27:31.195Z,100390.31
2022-10-24T03:29:59.170Z,100392.00
2022-10-24T03:34:59.952Z,100387.34
2022-10-24T03:37:27.964Z,100386.91
2022-10-24T03:39:55.916Z,100384.03
2022-10-24T03:42:23.882Z,100387.25
2022-10-24T03:44:53.192Z,100393.53
2022-10-24T03:47:21.152Z,100391.84
2022-10-24T03:49:49.114Z,100373.00
2022-10-24T03:52:17.074Z,100390.91
2022-10-24T03:54:45.057Z,100386.94
2022-10-24T03:57:13.005Z,100381.56
2022-10-24T03:59:41.001Z,100386.59
2022-10-24T04:02:10.342Z,100380.25
2022-10-24T04:04:38.324Z,100391.75
2022-10-24T04:07:06.409Z,100396.59
2022-10-24T04:09:34.479Z,100389.56
2022-10-24T04:12:02.570Z,100390.56
2022-10-24T04:14:30.560Z,100386.88
2022-10-24T04:16:58.527Z,100377.66
2022-10-24T04:19:27.902Z,100389.91
